Terminal Aerodrome Forecast
Issued by NWS

Home | Current Version | Previous Version | Text Only | Print | Product List | Glossary On
Versions: 1 2 3 4 5 6 7 8 9 10 11 12 13 14 15
000
FTUS44 KEPZ 180524
TAFLRU
TAF
KLRU 180524Z 1806/1906 16005KT P6SM FEW020 BKN200
      TEMPO 1811/1814 4SM BR
     FM181500 24012KT P6SM VCSH SCT040 BKN100 OVC130
     FM182000 24017G27KT P6SM SCT040 BKN100 BKN130=

USA.gov is the U.S. government's official web portal to all federal, state and local government web resources and services.